Time;durP1;ratioP1;P1;durP2;ratioP2;P2;SDS_P1;SDS_P2;PMS_P1;PMS_P2;Temp;Humidity;BMP_temperature;BMP_pressure;BME280_temperature;BME280_humidity;BME280_pressure;Samples;Min_cycle;Max_cycle;Signal;HPM_P1;HPM_P2
2021/03/27 00:02:25;;;;;;;8.70;7.72;;;10.70;49.80;;;;;;4927331;29;20274;-83
2021/03/27 00:05:00;;;;;;;10.05;7.60;;;10.80;48.70;;;;;;4927488;29;20224;-82
2021/03/27 00:07:33;;;;;;;10.60;7.15;;;10.90;48.80;;;;;;4929493;29;20236;-83
2021/03/27 00:10:13;;;;;;;8.65;6.88;;;11.00;48.70;;;;;;4929769;29;20242;-82
2021/03/27 00:12:43;;;;;;;7.00;6.30;;;11.20;48.30;;;;;;4930042;29;20244;-82
2021/03/27 00:15:19;;;;;;;8.93;6.85;;;11.40;47.70;;;;;;4930657;29;20331;-82
2021/03/27 00:17:52;;;;;;;7.90;6.30;;;11.40;47.40;;;;;;4932516;29;20234;-83
2021/03/27 00:20:24;;;;;;;8.05;6.43;;;11.50;47.20;;;;;;4929221;29;20283;-83
2021/03/27 00:22:55;;;;;;;9.20;6.47;;;11.50;47.20;;;;;;4924431;29;20215;-82
2021/03/27 00:25:25;;;;;;;6.75;5.72;;;11.70;46.80;;;;;;4927247;29;20286;-81
2021/03/27 00:28:02;;;;;;;6.00;5.43;;;11.80;46.30;;;;;;4926881;29;20222;-81
2021/03/27 00:30:33;;;;;;;5.97;4.97;;;11.80;46.10;;;;;;4929487;29;20310;-83
2021/03/27 00:33:00;;;;;;;7.45;4.78;;;12.00;45.60;;;;;;4929227;29;20251;-82
2021/03/27 00:35:32;;;;;;;8.65;5.20;;;12.10;45.10;;;;;;4932590;29;20207;-82
2021/03/27 00:38:01;;;;;;;5.20;4.70;;;12.30;44.70;;;;;;4933746;29;20277;-81
2021/03/27 00:40:31;;;;;;;6.68;5.28;;;12.40;44.40;;;;;;4932432;29;20251;-82
2021/03/27 00:43:02;;;;;;;5.72;5.10;;;12.50;44.00;;;;;;4939639;29;20199;-86
2021/03/27 00:45:34;;;;;;;5.50;4.22;;;12.60;44.00;;;;;;4942301;29;20206;-83
2021/03/27 00:48:05;;;;;;;4.95;4.45;;;12.60;43.80;;;;;;4942157;29;20251;-81
2021/03/27 00:50:38;;;;;;;3.92;3.53;;;12.60;43.50;;;;;;4941570;29;20214;-81
2021/03/27 00:53:11;;;;;;;4.00;3.58;;;12.60;43.30;;;;;;4939874;29;20246;-81
2021/03/27 00:55:46;;;;;;;7.40;3.63;;;12.70;43.60;;;;;;4934192;29;20226;-81
2021/03/27 00:58:18;;;;;;;5.43;3.40;;;12.80;43.30;;;;;;4933152;29;20249;-82
2021/03/27 01:00:47;;;;;;;3.50;3.20;;;12.80;43.20;;;;;;4932546;29;20223;-81
2021/03/27 01:03:21;;;;;;;5.57;3.58;;;12.80;43.30;;;;;;4932145;29;20282;-82
2021/03/27 01:05:50;;;;;;;6.00;3.55;;;12.80;43.20;;;;;;4932010;29;20280;-82
2021/03/27 01:08:19;;;;;;;3.63;3.33;;;12.90;43.20;;;;;;4934654;29;20316;-82
2021/03/27 01:10:50;;;;;;;4.95;3.00;;;12.90;43.40;;;;;;4936808;29;20204;-84
2021/03/27 01:13:20;;;;;;;6.45;3.70;;;12.90;43.80;;;;;;4938587;29;20188;-84
2021/03/27 01:15:49;;;;;;;4.20;3.13;;;12.90;44.30;;;;;;4937712;29;20275;-82
2021/03/27 01:18:19;;;;;;;6.32;2.88;;;12.90;44.50;;;;;;4938678;29;20203;-82
2021/03/27 01:20:49;;;;;;;5.00;2.90;;;12.90;44.70;;;;;;4937921;29;20207;-83
2021/03/27 01:23:17;;;;;;;3.20;2.85;;;12.90;45.20;;;;;;4938801;29;20208;-82
2021/03/27 01:25:44;;;;;;;4.22;2.72;;;12.80;45.40;;;;;;4924694;29;20235;-81
2021/03/27 01:28:23;;;;;;;4.95;2.67;;;12.90;45.80;;;;;;4919526;29;20493;-83
2021/03/27 01:30:58;;;;;;;3.22;2.70;;;12.80;45.90;;;;;;4919276;29;20215;-82
2021/03/27 01:33:29;;;;;;;2.95;2.65;;;12.80;46.00;;;;;;4928317;29;20208;-83
2021/03/27 01:36:05;;;;;;;3.40;2.65;;;12.80;46.20;;;;;;4919230;29;20195;-85
2021/03/27 01:38:39;;;;;;;4.13;3.30;;;12.80;46.50;;;;;;4919059;29;20704;-83
2021/03/27 01:41:16;;;;;;;3.85;2.92;;;12.70;46.90;;;;;;4915968;29;20244;-81
2021/03/27 01:43:53;;;;;;;5.68;2.80;;;12.60;47.00;;;;;;4929679;29;20203;-81
2021/03/27 01:46:44;;;;;;;3.17;2.60;;;12.60;47.50;;;;;;4931908;29;20263;-83
2021/03/27 01:49:25;;;;;;;4.80;3.58;;;12.50;47.90;;;;;;4913544;29;20485;-84
2021/03/27 01:52:20;;;;;;;2.70;2.50;;;12.50;48.40;;;;;;4915535;29;20660;-84
2021/03/27 01:54:56;;;;;;;4.07;2.90;;;12.40;48.90;;;;;;4934599;29;20242;-81
2021/03/27 01:57:29;;;;;;;5.53;2.75;;;12.40;49.30;;;;;;4934528;29;20360;-81
2021/03/27 01:59:59;;;;;;;10.13;2.97;;;12.40;49.70;;;;;;4934102;29;20254;-83
2021/03/27 02:02:34;;;;;;;3.33;2.60;;;12.40;50.40;;;;;;4933923;29;20234;-84
2021/03/27 02:05:06;;;;;;;3.80;2.95;;;12.40;50.70;;;;;;5043822;23;20285;-81
2021/03/27 02:07:44;;;;;;;4.82;3.00;;;12.30;51.40;;;;;;4959171;29;20203;-81
2021/03/27 02:10:19;;;;;;;5.13;3.17;;;12.20;51.30;;;;;;4954967;29;20230;-82
2021/03/27 02:12:57;;;;;;;3.30;2.80;;;12.20;51.30;;;;;;4953741;29;20237;-85
2021/03/27 02:15:36;;;;;;;2.50;2.30;;;12.20;51.30;;;;;;4954819;29;20237;-82
2021/03/27 02:18:09;;;;;;;10.77;3.63;;;12.20;51.30;;;;;;4950981;29;20195;-83
2021/03/27 02:21:14;;;;;;;4.07;2.80;;;12.10;51.20;;;;;;4950990;29;20210;-82
2021/03/27 02:24:00;;;;;;;3.08;2.65;;;12.10;51.10;;;;;;4952032;29;20202;-83
2021/03/27 02:26:56;;;;;;;3.08;2.65;;;12.10;51.30;;;;;;4952358;29;20223;-83
2021/03/27 02:29:51;;;;;;;4.60;3.10;;;12.10;51.70;;;;;;4945038;29;20261;-82
2021/03/27 02:32:23;;;;;;;2.70;2.47;;;12.10;51.90;;;;;;4955197;29;20211;-82
2021/03/27 02:34:55;;;;;;;3.25;2.95;;;12.10;52.20;;;;;;4956193;29;20210;-81
2021/03/27 02:37:49;;;;;;;4.63;3.08;;;12.20;52.60;;;;;;4955195;29;20274;-82
2021/03/27 02:40:22;;;;;;;4.20;3.63;;;12.10;55.50;;;;;;4893443;29;20233;-81
2021/03/27 02:42:57;;;;;;;6.13;4.75;;;11.70;66.40;;;;;;4894126;29;20228;-82
2021/03/27 02:45:30;;;;;;;4.32;3.92;;;11.20;75.10;;;;;;4894902;29;20230;-85
2021/03/27 02:48:06;;;;;;;4.43;4.03;;;10.70;80.60;;;;;;4894193;29;20227;-82
2021/03/27 02:50:43;;;;;;;5.35;3.92;;;10.50;82.20;;;;;;4894782;29;20208;-84
2021/03/27 02:53:16;;;;;;;5.72;4.25;;;10.20;84.00;;;;;;4893998;29;20211;-82
2021/03/27 02:55:52;;;;;;;5.85;4.53;;;10.10;85.70;;;;;;4894538;29;20277;-82
2021/03/27 02:58:29;;;;;;;5.55;4.00;;;9.90;85.60;;;;;;4894800;29;20223;-80
2021/03/27 03:01:07;;;;;;;3.58;3.28;;;9.90;86.30;;;;;;4889403;29;20204;-81
2021/03/27 03:03:46;;;;;;;5.30;3.25;;;9.80;86.20;;;;;;4900225;29;20244;-81
2021/03/27 03:06:28;;;;;;;3.65;3.35;;;9.70;85.40;;;;;;4950228;29;20220;-80
2021/03/27 03:09:10;;;;;;;3.58;3.28;;;9.70;86.00;;;;;;4944971;29;20280;-81
2021/03/27 03:11:48;;;;;;;4.65;2.80;;;9.70;85.40;;;;;;4944938;29;20206;-84
2021/03/27 03:14:22;;;;;;;3.63;2.70;;;9.60;84.20;;;;;;4945654;29;20202;-80
2021/03/27 03:17:01;;;;;;;3.75;2.40;;;9.60;82.30;;;;;;4946766;29;20258;-80
2021/03/27 03:19:37;;;;;;;2.83;2.30;;;9.50;78.00;;;;;;4951538;29;20238;-82
2021/03/27 03:22:11;;;;;;;1.67;1.58;;;9.50;74.20;;;;;;4949083;29;20246;-81
2021/03/27 03:24:42;;;;;;;2.10;1.75;;;9.50;72.70;;;;;;4950376;29;20187;-83
2021/03/27 03:27:16;;;;;;;2.15;1.90;;;9.50;70.50;;;;;;4951952;29;20218;-83
2021/03/27 03:29:56;;;;;;;1.58;1.45;;;9.50;71.60;;;;;;4948900;29;20258;-81
2021/03/27 03:32:40;;;;;;;3.08;1.55;;;9.50;71.80;;;;;;4947843;29;20202;-82
2021/03/27 03:35:26;;;;;;;1.35;1.10;;;9.30;69.00;;;;;;4946346;29;20210;-82
2021/03/27 03:38:00;;;;;;;1.30;1.20;;;9.20;63.80;;;;;;4945526;29;20537;-82
2021/03/27 03:40:38;;;;;;;0.77;0.70;;;9.10;65.80;;;;;;4941954;29;20730;-80
2021/03/27 03:43:13;;;;;;;1.02;0.93;;;9.00;64.60;;;;;;4944638;29;20336;-81
2021/03/27 03:45:47;;;;;;;0.70;0.70;;;8.90;63.50;;;;;;4944874;29;20212;-81
2021/03/27 03:48:31;;;;;;;1.20;1.10;;;8.80;65.40;;;;;;4944871;29;20268;-80
2021/03/27 03:51:01;;;;;;;1.25;1.15;;;8.80;67.10;;;;;;4940865;29;20211;-80
2021/03/27 03:53:42;;;;;;;4.30;1.15;;;8.80;68.20;;;;;;4941529;29;20198;-80
2021/03/27 03:56:17;;;;;;;1.38;1.27;;;8.70;68.80;;;;;;4938755;29;20249;-80
2021/03/27 03:59:10;;;;;;;1.27;1.08;;;8.50;70.00;;;;;;4940981;29;20238;-80
2021/03/27 04:01:46;;;;;;;2.97;1.60;;;8.40;68.70;;;;;;4911131;29;20317;-79
2021/03/27 04:04:18;;;;;;;2.05;1.20;;;8.30;67.10;;;;;;4938767;29;20191;-80
2021/03/27 04:06:47;;;;;;;2.10;1.35;;;8.20;67.00;;;;;;4934077;29;20281;-81
2021/03/27 04:09:20;;;;;;;1.92;1.25;;;8.10;66.90;;;;;;4934640;29;20697;-82
2021/03/27 04:11:59;;;;;;;1.35;1.25;;;8.00;66.80;;;;;;4954161;29;20237;-81
2021/03/27 04:14:46;;;;;;;1.42;1.33;;;8.00;67.40;;;;;;4953311;29;20206;-82
2021/03/27 04:17:18;;;;;;;1.58;1.48;;;7.90;67.30;;;;;;4952269;29;20223;-79
2021/03/27 04:19:51;;;;;;;0.95;0.95;;;7.80;68.20;;;;;;4946877;29;20294;-80
2021/03/27 04:22:24;;;;;;;1.20;1.10;;;7.70;68.20;;;;;;4954116;29;20215;-81
2021/03/27 04:25:06;;;;;;;2.25;1.10;;;7.80;68.80;;;;;;4952143;29;20207;-79
2021/03/27 04:27:37;;;;;;;3.15;1.23;;;7.80;66.90;;;;;;4952309;29;20202;-82
2021/03/27 04:38:50;;;;;;;1.33;1.23;;;7.70;66.60;;;;;;5056757;23;20412;-82
2021/03/27 04:41:35;;;;;;;1.65;1.27;;;7.60;66.50;;;;;;4940764;29;20317;-84
2021/03/27 04:44:08;;;;;;;0.95;0.90;;;7.60;66.50;;;;;;4941667;29;20539;-82
2021/03/27 04:46:42;;;;;;;1.13;1.00;;;7.60;66.50;;;;;;4945673;29;20274;-83
2021/03/27 04:49:19;;;;;;;1.17;1.10;;;7.60;65.60;;;;;;4926982;29;20303;-82
2021/03/27 04:52:06;;;;;;;1.55;1.30;;;7.40;65.00;;;;;;4924676;29;20207;-82
2021/03/27 04:54:46;;;;;;;0.90;0.80;;;7.40;65.50;;;;;;4925581;29;20218;-82
2021/03/27 04:57:22;;;;;;;1.13;1.10;;;7.30;66.20;;;;;;4923893;29;20241;-81
2021/03/27 04:59:58;;;;;;;1.88;1.00;;;7.20;66.20;;;;;;4922255;29;20239;-82
2021/03/27 05:02:34;;;;;;;1.15;1.05;;;7.20;65.90;;;;;;4929271;29;20235;-82
2021/03/27 05:05:07;;;;;;;2.78;1.33;;;7.10;65.20;;;;;;4930666;29;20215;-81
2021/03/27 05:07:45;;;;;;;1.00;1.00;;;7.00;66.00;;;;;;4926882;29;20258;-82
2021/03/27 05:10:16;;;;;;;1.10;1.00;;;7.00;66.00;;;;;;4923007;29;20242;-81
2021/03/27 05:12:58;;;;;;;0.90;0.57;;;6.90;65.60;;;;;;4928213;29;20246;-82
2021/03/27 05:15:33;;;;;;;1.02;0.60;;;6.90;64.00;;;;;;4928629;29;20304;-83
2021/03/27 05:18:33;;;;;;;0.75;0.60;;;6.80;63.30;;;;;;4922605;29;20269;-82
2021/03/27 05:21:06;;;;;;;0.65;0.63;;;6.80;63.30;;;;;;4908743;29;20247;-84
2021/03/27 05:23:41;;;;;;;0.90;0.80;;;6.70;64.20;;;;;;4917488;29;20227;-84
2021/03/27 05:26:16;;;;;;;1.73;0.80;;;6.70;65.70;;;;;;4935155;29;20211;-83
2021/03/27 05:29:14;;;;;;;0.80;0.80;;;6.60;65.60;;;;;;4928982;29;21898;-82
2021/03/27 05:31:51;;;;;;;0.73;0.73;;;6.60;67.60;;;;;;4897833;29;20279;-83
2021/03/27 05:34:31;;;;;;;1.00;1.00;;;6.60;68.80;;;;;;4930089;29;20218;-82
2021/03/27 05:37:17;;;;;;;1.15;1.05;;;6.60;69.40;;;;;;4930065;29;20242;-82
2021/03/27 05:39:53;;;;;;;2.05;1.40;;;6.60;69.10;;;;;;4931076;29;20211;-82
2021/03/27 05:42:47;;;;;;;3.08;1.35;;;6.60;66.10;;;;;;4930597;29;20242;-81
2021/03/27 05:45:54;;;;;;;5.15;1.50;;;6.70;64.30;;;;;;4929206;29;20242;-82
2021/03/27 05:49:11;;;;;;;4.53;1.10;;;6.70;64.40;;;;;;4933141;29;20223;-81
2021/03/27 05:52:19;;;;;;;4.97;1.25;;;6.70;65.10;;;;;;4925157;29;20215;-82
2021/03/27 05:55:35;;;;;;;1.15;0.80;;;6.80;63.60;;;;;;4918755;29;20212;-82
2021/03/27 05:58:30;;;;;;;1.20;1.00;;;6.90;63.20;;;;;;4921540;29;20242;-82
2021/03/27 06:01:14;;;;;;;1.20;1.10;;;7.00;62.80;;;;;;4929141;29;20214;-81
2021/03/27 06:04:08;;;;;;;1.85;0.80;;;7.00;61.60;;;;;;4929241;29;20660;-84
2021/03/27 06:06:49;;;;;;;3.50;1.48;;;7.00;60.90;;;;;;4907761;29;20211;-82
2021/03/27 06:09:35;;;;;;;1.40;1.10;;;7.00;59.40;;;;;;4909465;29;20204;-82
2021/03/27 06:12:31;;;;;;;2.78;1.35;;;7.10;58.50;;;;;;4929812;29;20215;-82
2021/03/27 06:15:26;;;;;;;1.73;1.30;;;7.10;57.10;;;;;;4928628;29;20259;-81
2021/03/27 06:18:27;;;;;;;1.20;1.10;;;7.10;57.10;;;;;;4922106;29;20235;-82
2021/03/27 06:21:14;;;;;;;2.60;1.17;;;7.20;57.20;;;;;;4920377;29;20239;-83
2021/03/27 06:24:16;;;;;;;1.45;1.02;;;7.40;57.00;;;;;;4921509;29;20258;-82
2021/03/27 06:27:17;;;;;;;1.38;0.90;;;7.50;56.10;;;;;;4912674;29;20215;-83
2021/03/27 06:30:37;;;;;;;2.58;1.00;;;7.60;55.20;;;;;;4927593;29;20199;-82
2021/03/27 06:33:35;;;;;;;1.77;1.25;;;7.70;55.70;;;;;;4882942;29;20239;-82
2021/03/27 06:36:24;;;;;;;2.05;0.70;;;7.80;55.20;;;;;;4927388;29;20289;-82
2021/03/27 06:39:31;;;;;;;2.65;1.10;;;7.80;54.30;;;;;;4913835;29;20238;-82
2021/03/27 06:42:37;;;;;;;3.67;1.10;;;7.80;54.50;;;;;;4922144;29;20239;-82
2021/03/27 06:45:41;;;;;;;2.05;1.27;;;7.80;54.00;;;;;;4923820;29;20231;-82
2021/03/27 06:48:46;;;;;;;1.85;1.15;;;8.00;53.00;;;;;;4924580;29;20250;-82
2021/03/27 06:51:36;;;;;;;4.72;1.27;;;8.10;52.40;;;;;;4921631;29;20317;-83
2021/03/27 06:54:21;;;;;;;1.92;1.40;;;8.30;52.00;;;;;;4924283;29;20250;-83
2021/03/27 06:56:59;;;;;;;3.30;1.33;;;8.40;50.80;;;;;;4923214;29;20281;-82
2021/03/27 06:59:56;;;;;;;1.98;1.25;;;8.40;50.80;;;;;;4920923;29;20245;-81
2021/03/27 07:03:04;;;;;;;1.40;1.30;;;8.50;50.00;;;;;;4867841;29;20270;-81
2021/03/27 07:06:04;;;;;;;1.83;1.35;;;8.50;49.30;;;;;;4922048;29;20218;-82
2021/03/27 07:09:01;;;;;;;1.75;1.60;;;8.40;49.80;;;;;;4924339;29;20313;-82
2021/03/27 07:12:05;;;;;;;2.72;1.75;;;8.40;49.30;;;;;;4926282;29;20265;-82
2021/03/27 07:14:55;;;;;;;2.97;1.25;;;8.40;49.00;;;;;;4868243;29;20243;-81
2021/03/27 07:17:48;;;;;;;4.65;1.80;;;8.60;49.00;;;;;;4904142;29;20250;-83
2021/03/27 07:20:40;;;;;;;1.95;1.30;;;8.70;49.10;;;;;;4898123;29;20212;-82
2021/03/27 07:23:43;;;;;;;3.08;1.42;;;8.60;49.00;;;;;;4900497;29;20216;-82
2021/03/27 07:26:52;;;;;;;2.25;1.10;;;8.60;49.00;;;;;;4910519;29;20203;-81
2021/03/27 07:29:42;;;;;;;1.20;1.10;;;8.70;48.10;;;;;;4919792;29;20207;-82
2021/03/27 07:32:27;;;;;;;1.13;0.80;;;8.70;46.30;;;;;;4919772;29;20191;-84
2021/03/27 07:35:21;;;;;;;2.42;0.93;;;8.80;45.50;;;;;;4921382;29;20234;-84
2021/03/27 07:38:26;;;;;;;3.08;1.20;;;8.90;44.40;;;;;;4919940;29;20238;-87
2021/03/27 07:41:02;;;;;;;2.17;1.20;;;8.90;43.70;;;;;;4920205;29;20215;-86
2021/03/27 07:43:58;;;;;;;1.60;0.82;;;9.00;42.90;;;;;;4921562;29;20207;-87
2021/03/27 07:46:59;;;;;;;1.70;0.90;;;9.00;41.10;;;;;;4901739;29;20218;-86
2021/03/27 07:50:01;;;;;;;1.38;0.90;;;9.00;39.60;;;;;;4921800;29;20217;-87
2021/03/27 07:52:37;;;;;;;2.67;1.00;;;9.00;39.60;;;;;;4921844;29;20207;-85
2021/03/27 07:55:36;;;;;;;2.08;1.08;;;9.00;38.70;;;;;;4923071;29;20206;-86
2021/03/27 07:58:29;;;;;;;4.50;1.15;;;9.00;38.00;;;;;;4924450;29;20239;-85
2021/03/27 08:01:25;;;;;;;2.40;1.05;;;9.10;37.80;;;;;;4903952;29;20248;-86
2021/03/27 08:04:14;;;;;;;1.88;1.02;;;9.20;36.00;;;;;;4903009;29;20188;-86
2021/03/27 08:06:50;;;;;;;1.25;0.90;;;9.10;35.60;;;;;;4915004;29;20181;-86
2021/03/27 08:09:37;;;;;;;1.35;0.90;;;9.10;35.30;;;;;;4928165;29;20210;-87
2021/03/27 08:12:52;;;;;;;2.47;1.30;;;9.20;35.50;;;;;;4932996;29;20502;-86
2021/03/27 08:16:06;;;;;;;4.85;1.10;;;9.40;34.30;;;;;;4932790;29;20192;-88
2021/03/27 08:18:58;;;;;;;2.78;0.80;;;9.50;34.30;;;;;;4836950;29;20287;-86
2021/03/27 08:21:36;;;;;;;2.47;0.80;;;9.60;34.00;;;;;;4910133;29;20230;-87
2021/03/27 08:24:13;;;;;;;2.50;1.23;;;9.70;33.20;;;;;;4911183;29;20216;-87
2021/03/27 08:27:11;;;;;;;1.98;0.85;;;9.80;33.00;;;;;;4911397;29;20204;-88
2021/03/27 08:30:17;;;;;;;1.83;1.17;;;10.10;31.60;;;;;;4938017;29;20239;-89
2021/03/27 08:33:14;;;;;;;3.38;1.48;;;10.20;31.60;;;;;;4939145;29;20210;-87
2021/03/27 08:36:12;;;;;;;2.88;0.82;;;10.40;30.00;;;;;;4939114;29;20211;-87
2021/03/27 08:39:25;;;;;;;1.02;0.93;;;10.50;30.00;;;;;;4930555;29;20286;-85
2021/03/27 08:42:23;;;;;;;3.42;1.15;;;10.40;30.50;;;;;;4935708;29;20235;-85
2021/03/27 08:48:29;;;;;;;2.65;1.00;;;10.60;30.00;;;;;;5018610;23;20243;-87
2021/03/27 08:51:32;;;;;;;3.78;0.90;;;10.60;30.00;;;;;;4960578;28;20193;-84
2021/03/27 08:54:57;;;;;;;1.17;0.75;;;10.40;30.00;;;;;;4957480;29;20214;-88
2021/03/27 08:58:02;;;;;;;1.23;0.80;;;10.20;30.80;;;;;;4952026;29;20246;-87
2021/03/27 09:01:14;;;;;;;1.25;0.80;;;10.50;30.00;;;;;;4953044;29;20218;-86
2021/03/27 09:04:12;;;;;;;3.17;0.95;;;10.60;30.00;;;;;;4919022;29;20282;-83
2021/03/27 09:06:56;;;;;;;1.58;0.98;;;10.70;30.10;;;;;;4952926;29;20215;-83
2021/03/27 09:09:52;;;;;;;2.60;0.75;;;10.80;29.50;;;;;;4956970;29;20213;-86
2021/03/27 09:12:39;;;;;;;3.20;0.80;;;10.50;29.70;;;;;;4948609;29;20369;-81
2021/03/27 09:15:38;;;;;;;2.17;0.70;;;10.20;29.80;;;;;;4949093;29;20213;-81
2021/03/27 09:18:22;;;;;;;3.08;1.15;;;10.30;30.40;;;;;;4947547;29;20234;-80
2021/03/27 09:21:16;;;;;;;2.55;1.00;;;10.80;30.20;;;;;;4932519;29;20245;-82
2021/03/27 09:23:55;;;;;;;6.38;1.10;;;10.90;29.20;;;;;;4935947;29;20218;-81
2021/03/27 09:26:48;;;;;;;4.43;1.30;;;10.90;28.70;;;;;;4946861;29;20206;-80
2021/03/27 09:29:52;;;;;;;3.05;1.08;;;10.90;27.80;;;;;;4946537;29;20246;-82
2021/03/27 09:32:33;;;;;;;1.77;0.95;;;10.90;28.10;;;;;;4927670;29;20254;-82
2021/03/27 09:35:36;;;;;;;2.47;0.90;;;10.90;28.50;;;;;;4948407;29;20199;-81
2021/03/27 09:38:14;;;;;;;1.15;0.95;;;11.20;28.10;;;;;;4947370;29;20234;-82
2021/03/27 09:41:10;;;;;;;5.75;1.10;;;11.40;27.40;;;;;;4942546;29;20199;-83
2021/03/27 09:44:10;;;;;;;3.72;0.77;;;11.20;27.40;;;;;;4954343;29;20246;-85
2021/03/27 09:46:48;;;;;;;4.85;1.20;;;11.70;27.30;;;;;;4944873;29;20210;-86
2021/03/27 09:49:30;;;;;;;1.50;1.05;;;11.50;27.10;;;;;;4948535;29;20219;-82
2021/03/27 09:52:17;;;;;;;3.83;0.80;;;11.50;27.50;;;;;;4952875;29;20203;-81
2021/03/27 09:54:48;;;;;;;2.35;1.00;;;11.60;27.40;;;;;;4955308;29;20303;-82
2021/03/27 09:57:25;;;;;;;1.88;1.00;;;11.60;26.10;;;;;;4948600;29;20226;-82
2021/03/27 10:00:13;;;;;;;2.75;1.13;;;11.30;25.50;;;;;;4952523;29;20213;-81
2021/03/27 10:02:45;;;;;;;1.88;1.13;;;11.30;24.60;;;;;;4953725;29;20220;-81
2021/03/27 10:05:28;;;;;;;2.97;0.88;;;11.50;24.50;;;;;;4954602;29;20686;-81
2021/03/27 10:08:04;;;;;;;1.92;0.80;;;11.40;24.10;;;;;;4954188;29;20317;-82
2021/03/27 10:10:40;;;;;;;2.25;0.70;;;11.50;24.20;;;;;;4957741;28;20194;-81
2021/03/27 10:13:24;;;;;;;4.55;1.10;;;11.70;24.70;;;;;;4959590;28;20190;-81
2021/03/27 10:15:54;;;;;;;2.65;1.45;;;11.60;24.50;;;;;;4960746;28;20186;-86
2021/03/27 10:18:30;;;;;;;1.00;0.73;;;11.60;24.60;;;;;;4959838;28;20231;-86
2021/03/27 10:21:07;;;;;;;2.40;1.58;;;11.30;24.90;;;;;;4958039;28;20218;-83
2021/03/27 10:23:38;;;;;;;3.33;1.30;;;11.00;25.30;;;;;;4939632;29;20218;-86
2021/03/27 10:26:27;;;;;;;3.10;0.95;;;10.80;25.60;;;;;;4940117;29;20373;-82
2021/03/27 10:28:57;;;;;;;1.60;1.15;;;10.70;25.50;;;;;;4940487;29;20230;-89
2021/03/27 10:31:30;;;;;;;2.15;1.00;;;10.70;26.20;;;;;;4942186;28;20210;-88
2021/03/27 10:34:11;;;;;;;5.25;1.20;;;10.70;26.20;;;;;;4959552;28;20266;-86
2021/03/27 10:36:46;;;;;;;1.70;1.00;;;10.90;26.00;;;;;;4958844;28;20202;-87
2021/03/27 10:39:36;;;;;;;2.15;1.17;;;11.10;26.20;;;;;;5002720;23;20233;-81
2021/03/27 10:42:37;;;;;;;4.97;1.20;;;11.30;25.60;;;;;;4977467;28;20276;-88
2021/03/27 10:53:41;;;;;;;2.83;1.08;;;10.80;26.10;;;;;;5016075;23;20240;-85
2021/03/27 10:56:31;;;;;;;4.18;1.00;;;10.80;25.60;;;;;;4991281;28;20213;-85
2021/03/27 10:59:06;;;;;;;2.85;1.00;;;11.10;25.10;;;;;;4982453;28;20200;-84
2021/03/27 11:02:15;;;;;;;2.03;1.10;;;11.40;24.60;;;;;;4980025;28;20263;-85
2021/03/27 11:05:11;;;;;;;2.88;1.02;;;11.60;24.30;;;;;;4966189;29;20206;-84
2021/03/27 11:08:16;;;;;;;5.50;1.33;;;11.90;23.10;;;;;;4972069;28;20186;-84
2021/03/27 11:11:28;;;;;;;5.30;1.20;;;12.00;23.10;;;;;;4972239;29;20213;-83
2021/03/27 11:14:19;;;;;;;3.45;1.10;;;11.90;23.10;;;;;;4970028;29;20221;-83
2021/03/27 11:17:14;;;;;;;5.88;1.00;;;12.00;23.10;;;;;;4976233;29;20256;-82
2021/03/27 11:20:08;;;;;;;1.40;0.82;;;12.10;23.20;;;;;;4977077;28;20198;-83
2021/03/27 11:23:02;;;;;;;5.78;1.20;;;12.30;23.10;;;;;;4975940;28;20291;-83
2021/03/27 11:26:00;;;;;;;3.45;1.27;;;11.90;23.10;;;;;;4970236;29;20256;-83
2021/03/27 11:28:32;;;;;;;2.20;1.00;;;12.20;23.30;;;;;;4970089;29;20229;-84
2021/03/27 11:31:34;;;;;;;2.95;0.95;;;12.20;23.30;;;;;;4968792;29;20202;-84
2021/03/27 11:34:12;;;;;;;2.55;0.88;;;12.10;23.20;;;;;;4963614;29;20198;-84
2021/03/27 11:36:43;;;;;;;2.55;1.10;;;12.30;23.30;;;;;;4963103;29;20657;-84
2021/03/27 11:39:27;;;;;;;1.83;1.20;;;12.30;23.30;;;;;;4963941;29;20654;-84
2021/03/27 11:42:05;;;;;;;4.10;1.25;;;12.30;23.30;;;;;;4962571;28;20390;-84
2021/03/27 11:45:03;;;;;;;4.68;1.20;;;12.40;22.70;;;;;;4966867;29;20268;-85
2021/03/27 11:48:00;;;;;;;5.93;1.00;;;12.40;22.10;;;;;;4961791;29;20209;-85
2021/03/27 11:50:48;;;;;;;5.20;1.27;;;12.20;22.20;;;;;;4953391;29;20213;-85
2021/03/27 11:53:36;;;;;;;4.47;1.15;;;12.10;23.80;;;;;;4968130;28;20234;-85
2021/03/27 11:56:08;;;;;;;2.35;1.15;;;12.10;22.30;;;;;;4970201;29;20221;-85
2021/03/27 12:01:32;;;;;;;1.45;0.80;;;12.20;21.90;;;;;;4972106;28;20229;-85
2021/03/27 12:04:29;;;;;;;4.60;0.80;;;12.30;21.60;;;;;;4973954;29;20258;-85
2021/03/27 12:07:07;;;;;;;2.28;1.05;;;12.30;21.80;;;;;;4972918;29;20330;-85
2021/03/27 12:09:44;;;;;;;5.18;1.23;;;12.30;21.80;;;;;;4973626;29;20213;-84
2021/03/27 12:12:23;;;;;;;5.88;1.73;;;12.30;22.70;;;;;;4971846;28;20226;-83
2021/03/27 12:14:54;;;;;;;1.95;0.90;;;12.80;21.50;;;;;;4972307;29;20194;-84
2021/03/27 12:17:27;;;;;;;5.10;1.00;;;13.10;21.20;;;;;;4972520;29;20210;-83
2021/03/27 12:20:03;;;;;;;3.10;0.82;;;12.90;21.30;;;;;;4975131;28;20210;-84
2021/03/27 12:22:35;;;;;;;3.10;1.30;;;12.60;21.60;;;;;;4975115;28;20269;-83
2021/03/27 12:25:29;;;;;;;3.05;0.75;;;12.70;22.10;;;;;;4976794;29;20240;-83
2021/03/27 12:28:05;;;;;;;6.00;1.40;;;12.60;22.30;;;;;;4971871;29;20225;-83
2021/03/27 12:30:47;;;;;;;3.60;1.27;;;12.40;22.60;;;;;;4976276;29;20209;-85
2021/03/27 12:33:18;;;;;;;4.18;1.15;;;12.40;23.00;;;;;;4972979;28;20234;-83
2021/03/27 12:35:50;;;;;;;4.18;1.40;;;12.20;23.60;;;;;;4972584;29;20216;-84
2021/03/27 12:38:48;;;;;;;2.13;1.00;;;12.00;24.00;;;;;;4966882;29;20221;-84
2021/03/27 12:41:23;;;;;;;5.78;1.50;;;12.10;23.20;;;;;;4967584;28;20229;-85
2021/03/27 12:43:52;;;;;;;5.05;1.38;;;12.00;23.20;;;;;;4969084;29;20229;-85
2021/03/27 12:46:54;;;;;;;2.10;0.98;;;11.90;23.10;;;;;;4971849;29;20221;-84
2021/03/27 12:49:38;;;;;;;4.95;1.38;;;12.10;23.20;;;;;;4946344;29;20217;-85
2021/03/27 12:52:20;;;;;;;2.67;1.10;;;12.30;23.30;;;;;;4976953;28;20234;-83
2021/03/27 12:54:57;;;;;;;2.67;0.95;;;12.40;23.40;;;;;;4976327;29;20244;-86
2021/03/27 12:57:48;;;;;;;3.35;1.23;;;12.40;23.40;;;;;;4975275;29;20206;-83
2021/03/27 13:00:53;;;;;;;2.78;0.82;;;12.10;23.20;;;;;;4974605;29;20186;-83
2021/03/27 13:03:44;;;;;;;3.13;1.60;;;12.20;23.30;;;;;;4975712;28;20237;-83
2021/03/27 13:06:31;;;;;;;2.85;1.38;;;12.10;23.20;;;;;;4970056;28;20281;-85
2021/03/27 13:09:24;;;;;;;3.75;1.50;;;12.10;23.20;;;;;;4955276;29;20226;-86
2021/03/27 13:11:57;;;;;;;5.65;1.10;;;12.40;23.40;;;;;;4964914;28;20264;-85
2021/03/27 13:15:08;;;;;;;3.90;1.02;;;12.20;23.30;;;;;;4969748;29;20216;-84
2021/03/27 13:17:49;;;;;;;2.50;1.10;;;12.00;23.10;;;;;;4970843;29;20265;-85
2021/03/27 13:20:26;;;;;;;1.27;0.80;;;11.80;23.30;;;;;;4968858;29;20217;-85
2021/03/27 13:23:00;;;;;;;2.00;0.80;;;11.50;24.70;;;;;;4970043;28;20233;-84
2021/03/27 13:25:30;;;;;;;2.65;1.25;;;11.30;25.70;;;;;;4970910;29;20236;-85
2021/03/27 13:28:02;;;;;;;2.55;1.13;;;11.20;25.80;;;;;;4969611;29;20214;-83
2021/03/27 13:30:32;;;;;;;4.03;1.30;;;11.20;26.60;;;;;;4969104;28;20272;-83
2021/03/27 13:33:20;;;;;;;6.88;1.52;;;11.20;26.40;;;;;;4971435;28;20258;-82
2021/03/27 13:36:03;;;;;;;1.17;0.95;;;11.50;26.00;;;;;;4966749;29;20662;-86
2021/03/27 13:38:36;;;;;;;3.63;1.50;;;12.10;25.40;;;;;;4973961;29;20194;-85
2021/03/27 13:41:19;;;;;;;5.15;1.30;;;12.40;24.80;;;;;;4975640;28;20222;-83
2021/03/27 13:43:52;;;;;;;4.45;1.20;;;12.30;24.60;;;;;;4972997;29;20229;-84
2021/03/27 13:46:23;;;;;;;2.60;0.95;;;12.10;24.10;;;;;;4971899;29;20265;-84
2021/03/27 13:48:59;;;;;;;4.32;1.40;;;11.90;23.80;;;;;;4971258;28;20229;-85
2021/03/27 13:51:33;;;;;;;3.03;1.30;;;12.00;23.90;;;;;;4972216;28;20267;-84
2021/03/27 13:54:09;;;;;;;4.20;1.33;;;12.30;23.30;;;;;;4971960;29;20209;-83
2021/03/27 13:56:43;;;;;;;4.40;1.60;;;12.30;23.30;;;;;;4973383;29;20218;-83
2021/03/27 13:59:50;;;;;;;4.55;1.30;;;12.40;23.40;;;;;;4976438;28;20198;-84
2021/03/27 14:02:46;;;;;;;4.25;1.25;;;12.40;23.40;;;;;;4976344;28;20237;-86
2021/03/27 14:05:35;;;;;;;2.35;0.80;;;12.80;23.70;;;;;;4973588;29;20225;-85
2021/03/27 14:08:08;;;;;;;3.42;1.20;;;13.10;22.10;;;;;;4976492;29;20221;-83
2021/03/27 14:10:37;;;;;;;3.92;1.15;;;13.00;21.00;;;;;;4973048;29;20205;-84
2021/03/27 14:13:14;;;;;;;2.60;1.13;;;12.70;20.90;;;;;;4966655;28;20261;-84
2021/03/27 14:15:44;;;;;;;4.28;0.88;;;12.30;22.00;;;;;;4967215;29;20224;-83
2021/03/27 14:18:30;;;;;;;2.75;1.42;;;12.10;22.40;;;;;;4974888;29;20250;-83
2021/03/27 14:21:07;;;;;;;1.45;0.93;;;12.00;23.10;;;;;;4974165;29;20253;-83
2021/03/27 14:23:43;;;;;;;1.77;1.00;;;12.20;23.30;;;;;;4973515;29;20285;-85
2021/03/27 14:26:23;;;;;;;2.20;1.10;;;12.40;23.10;;;;;;4972874;29;20209;-84
2021/03/27 14:28:57;;;;;;;3.88;1.00;;;12.50;22.60;;;;;;4976698;29;20197;-83
2021/03/27 14:31:35;;;;;;;5.10;1.25;;;12.50;22.50;;;;;;4974504;28;20214;-84
2021/03/27 14:34:20;;;;;;;3.00;1.15;;;12.60;22.70;;;;;;4970080;29;20241;-85
2021/03/27 14:37:01;;;;;;;3.17;1.55;;;12.60;23.40;;;;;;4965749;28;20236;-83
2021/03/27 14:39:56;;;;;;;3.65;0.90;;;12.50;23.50;;;;;;4968369;29;20589;-84